createdAt,value
2022-07-31T00:00:28.929Z,7.10
2022-07-31T00:02:57.621Z,7.10
2022-07-31T00:05:26.384Z,6.90
2022-07-31T00:07:55.155Z,7.40
2022-07-31T00:10:23.861Z,7.90
2022-07-31T00:12:52.545Z,7.68
2022-07-31T00:15:22.412Z,8.73
2022-07-31T00:17:51.058Z,9.10
2022-07-31T00:20:19.763Z,9.75
2022-07-31T00:22:49.423Z,9.55
2022-07-31T00:25:18.889Z,11.63
2022-07-31T00:27:47.557Z,10.85
2022-07-31T00:30:17.056Z,11.38
2022-07-31T00:32:47.093Z,11.15
2022-07-31T00:35:17.373Z,12.13
2022-07-31T00:37:46.004Z,12.07
2022-07-31T00:40:16.080Z,11.55
2022-07-31T00:42:44.867Z,13.70
2022-07-31T00:45:13.995Z,14.15
2022-07-31T00:47:42.850Z,13.43
2022-07-31T00:50:13.910Z,13.13
2022-07-31T00:52:42.419Z,13.55
2022-07-31T00:55:11.348Z,14.20
2022-07-31T00:57:39.856Z,17.30
2022-07-31T01:00:08.911Z,19.80
2022-07-31T01:02:38.466Z,22.33
2022-07-31T01:05:18.964Z,24.63
2022-07-31T01:07:49.020Z,24.05
2022-07-31T01:10:21.349Z,25.60
2022-07-31T01:12:54.325Z,23.13
2022-07-31T01:15:23.310Z,26.73
2022-07-31T01:17:53.088Z,28.63
2022-07-31T01:20:23.830Z,28.67
2022-07-31T01:22:59.231Z,27.60
2022-07-31T01:25:33.820Z,28.17
2022-07-31T01:28:06.168Z,32.28
2022-07-31T01:30:38.276Z,32.03
2022-07-31T01:33:09.198Z,29.38
2022-07-31T01:35:41.652Z,29.63
2022-07-31T01:38:12.623Z,30.83
2022-07-31T01:40:44.163Z,31.77
2022-07-31T01:43:14.539Z,30.02
2022-07-31T01:45:45.383Z,31.92
2022-07-31T01:48:16.273Z,33.15
2022-07-31T01:50:45.981Z,34.15
2022-07-31T01:53:15.671Z,35.08
2022-07-31T01:56:02.650Z,35.35
2022-07-31T01:58:35.044Z,37.63
2022-07-31T02:01:05.731Z,34.95
2022-07-31T02:03:44.224Z,34.80
2022-07-31T02:06:15.160Z,37.03
2022-07-31T02:08:45.941Z,38.08
2022-07-31T02:11:15.267Z,40.00
2022-07-31T02:13:43.982Z,39.47
2022-07-31T02:16:13.955Z,37.45
2022-07-31T02:18:42.524Z,36.38
2022-07-31T02:21:11.286Z,36.60
2022-07-31T02:23:39.775Z,37.50
2022-07-31T02:26:09.091Z,36.80
2022-07-31T02:28:39.116Z,35.72
2022-07-31T02:31:10.296Z,37.88
2022-07-31T02:33:41.425Z,36.00
2022-07-31T02:36:11.657Z,36.10
2022-07-31T02:38:41.264Z,34.78
2022-07-31T02:41:11.388Z,36.55
2022-07-31T02:43:40.567Z,34.58
2022-07-31T02:46:09.903Z,34.83
2022-07-31T02:48:40.085Z,37.28
2022-07-31T02:51:08.991Z,40.25
2022-07-31T02:53:38.703Z,40.65
2022-07-31T02:56:09.438Z,38.65
2022-07-31T02:58:41.931Z,41.22
2022-07-31T03:01:10.703Z,41.65
2022-07-31T03:03:40.687Z,42.65
2022-07-31T03:06:09.261Z,38.88
2022-07-31T03:08:38.931Z,38.28
2022-07-31T03:11:07.482Z,42.55
2022-07-31T03:13:36.896Z,41.50
2022-07-31T03:16:06.103Z,41.75
2022-07-31T03:18:35.015Z,42.50
2022-07-31T03:21:05.187Z,44.33
2022-07-31T03:23:36.616Z,42.08
2022-07-31T03:26:05.605Z,44.45
2022-07-31T03:28:35.501Z,42.00
2022-07-31T03:31:04.157Z,41.75
2022-07-31T03:33:32.899Z,40.30
2022-07-31T03:36:01.409Z,45.40
2022-07-31T03:38:38.662Z,42.38
2022-07-31T03:41:09.720Z,47.00
2022-07-31T03:43:44.332Z,44.33
2022-07-31T03:46:17.088Z,44.25
2022-07-31T03:48:45.843Z,42.63
2022-07-31T03:51:14.688Z,40.85
2022-07-31T03:53:45.360Z,41.65
2022-07-31T03:56:14.150Z,42.67
2022-07-31T03:58:42.652Z,42.15
2022-07-31T04:01:17.367Z,36.20
2022-07-31T04:03:49.356Z,35.10
2022-07-31T04:06:17.899Z,34.15
2022-07-31T04:08:48.501Z,34.03
2022-07-31T04:11:17.732Z,33.30
2022-07-31T04:13:46.231Z,34.20
2022-07-31T04:16:14.712Z,33.15
2022-07-31T04:18:43.210Z,34.60
2022-07-31T04:21:19.453Z,33.50
2022-07-31T04:23:50.435Z,41.38
2022-07-31T04:26:19.859Z,34.92
2022-07-31T04:28:54.828Z,40.50
2022-07-31T04:31:23.285Z,41.30
2022-07-31T04:33:56.127Z,42.83
2022-07-31T04:36:30.672Z,49.25
2022-07-31T04:39:01.184Z,46.30
2022-07-31T04:41:29.926Z,51.22
2022-07-31T04:43:59.578Z,49.92
2022-07-31T04:46:29.579Z,54.50
2022-07-31T04:48:58.218Z,52.08
2022-07-31T04:51:26.794Z,55.22
2022-07-31T04:53:55.252Z,51.70
2022-07-31T04:56:44.933Z,53.67
2022-07-31T04:59:14.271Z,57.78
2022-07-31T05:01:43.429Z,50.13
2022-07-31T05:04:12.276Z,50.70
2022-07-31T05:06:41.481Z,47.33
2022-07-31T05:09:17.819Z,41.65
2022-07-31T05:11:49.532Z,25.42
2022-07-31T05:14:18.896Z,20.63
2022-07-31T05:16:47.439Z,18.80
2022-07-31T05:19:15.884Z,15.67
2022-07-31T05:21:51.370Z,13.60
2022-07-31T05:24:33.204Z,12.03
2022-07-31T05:27:04.137Z,11.07
2022-07-31T05:29:33.034Z,10.00
2022-07-31T05:32:01.880Z,9.43
2022-07-31T05:34:30.911Z,8.17
2022-07-31T05:37:01.165Z,8.77
2022-07-31T05:39:30.380Z,7.63
2022-07-31T05:41:59.064Z,7.57
2022-07-31T05:44:28.975Z,7.73
2022-07-31T05:49:26.824Z,7.27
2022-07-31T05:51:55.562Z,7.03
2022-07-31T05:54:24.259Z,6.43
2022-07-31T05:56:52.736Z,6.90
2022-07-31T05:59:21.177Z,6.47
2022-07-31T06:01:51.278Z,6.20
2022-07-31T06:04:19.699Z,6.47
2022-07-31T06:06:48.260Z,6.40
2022-07-31T06:09:16.740Z,6.27
2022-07-31T06:11:45.159Z,6.47
2022-07-31T06:14:13.731Z,6.10
2022-07-31T06:16:42.200Z,5.90
2022-07-31T06:19:12.060Z,6.53
2022-07-31T06:21:40.637Z,6.93
2022-07-31T06:24:09.306Z,5.50
2022-07-31T06:26:37.848Z,6.00
2022-07-31T06:29:07.382Z,6.20
2022-07-31T06:31:35.854Z,5.10
2022-07-31T06:34:04.367Z,5.90
2022-07-31T06:36:34.472Z,5.70
2022-07-31T06:39:02.910Z,5.10
2022-07-31T06:41:48.329Z,5.67
2022-07-31T06:44:16.831Z,5.17
2022-07-31T06:46:49.110Z,5.20
2022-07-31T06:49:18.180Z,4.37
2022-07-31T06:51:48.110Z,5.67
2022-07-31T06:54:16.581Z,4.00
2022-07-31T06:56:45.464Z,3.73
2022-07-31T06:59:13.960Z,3.97
2022-07-31T07:02:02.618Z,4.47
2022-07-31T07:05:05.241Z,4.30
2022-07-31T07:07:22.572Z,4.57
2022-07-31T07:09:51.083Z,4.17
2022-07-31T07:12:19.854Z,3.90
2022-07-31T07:14:51.009Z,4.73
2022-07-31T07:17:19.578Z,5.00
2022-07-31T07:19:49.634Z,4.87
2022-07-31T07:22:31.256Z,4.30
2022-07-31T07:25:01.572Z,5.20
2022-07-31T07:27:30.216Z,5.37
2022-07-31T07:29:58.924Z,6.03
2022-07-31T07:32:27.467Z,5.60
2022-07-31T07:35:00.057Z,5.53
2022-07-31T07:37:31.172Z,5.87
2022-07-31T07:40:08.379Z,4.60
2022-07-31T07:42:36.822Z,5.50
2022-07-31T07:45:08.346Z,4.80
2022-07-31T07:48:05.125Z,5.00
2022-07-31T07:50:26.805Z,4.33
2022-07-31T07:52:59.027Z,4.07
2022-07-31T07:55:27.521Z,3.90
2022-07-31T07:58:11.405Z,3.67
2022-07-31T08:00:40.719Z,4.00
2022-07-31T08:03:50.030Z,2.73
2022-07-31T08:05:57.819Z,3.80
2022-07-31T08:08:27.900Z,2.40
2022-07-31T08:10:56.337Z,3.60
2022-07-31T08:13:25.266Z,3.00
2022-07-31T08:15:53.776Z,2.67
2022-07-31T08:18:22.448Z,3.27
2022-07-31T08:20:56.916Z,2.73
2022-07-31T08:23:27.130Z,2.60
2022-07-31T08:25:55.698Z,3.30
2022-07-31T08:28:26.071Z,2.90
2022-07-31T08:30:54.968Z,3.47
2022-07-31T08:33:23.499Z,2.40
2022-07-31T08:35:51.988Z,3.10
2022-07-31T08:38:20.785Z,3.00
2022-07-31T08:40:50.742Z,2.33
2022-07-31T08:44:01.574Z,2.17
2022-07-31T08:46:08.502Z,2.23
2022-07-31T08:48:41.788Z,2.33
2022-07-31T08:51:12.525Z,2.50
2022-07-31T08:53:41.739Z,2.50
2022-07-31T08:56:11.751Z,2.53
2022-07-31T08:58:40.297Z,2.40
2022-07-31T09:01:09.633Z,2.53
2022-07-31T09:03:38.670Z,2.50
2022-07-31T09:06:07.600Z,2.40
2022-07-31T09:08:36.538Z,2.17
2022-07-31T09:11:06.211Z,2.23
2022-07-31T09:13:36.675Z,2.67
2022-07-31T09:16:05.622Z,2.13
2022-07-31T09:18:35.123Z,1.90
2022-07-31T09:21:04.413Z,2.30
2022-07-31T09:23:33.527Z,1.57
2022-07-31T09:26:03.423Z,1.90
2022-07-31T09:28:37.450Z,2.50
2022-07-31T09:31:06.895Z,2.10
2022-07-31T09:33:42.330Z,2.17
2022-07-31T09:36:14.903Z,2.10
2022-07-31T09:38:44.484Z,1.70
2022-07-31T09:41:53.583Z,1.80
2022-07-31T09:44:09.953Z,2.40
2022-07-31T09:46:42.466Z,2.27
2022-07-31T09:49:11.260Z,2.30
2022-07-31T09:51:41.023Z,2.30
2022-07-31T09:54:09.903Z,2.57
2022-07-31T09:56:38.347Z,2.20
2022-07-31T09:59:08.963Z,2.20
2022-07-31T10:01:41.386Z,1.87
2022-07-31T10:04:10.306Z,2.10
2022-07-31T10:06:39.989Z,2.10
2022-07-31T10:09:08.937Z,2.10
2022-07-31T10:11:39.017Z,2.10
2022-07-31T10:14:10.251Z,1.97
2022-07-31T10:16:41.861Z,2.00
2022-07-31T10:19:13.240Z,2.07
2022-07-31T10:21:43.735Z,2.10
2022-07-31T10:24:13.398Z,2.13
2022-07-31T10:27:00.693Z,2.20
2022-07-31T10:29:33.324Z,2.03
2022-07-31T10:32:02.111Z,2.00
2022-07-31T10:34:31.389Z,2.10
2022-07-31T10:37:05.370Z,2.00
2022-07-31T10:39:44.073Z,1.80
2022-07-31T10:42:17.658Z,1.70
2022-07-31T10:44:49.014Z,1.87
2022-07-31T10:47:18.090Z,1.63
2022-07-31T10:49:49.118Z,2.07
2022-07-31T10:52:27.975Z,2.30
2022-07-31T10:54:58.267Z,1.90
2022-07-31T10:57:27.398Z,1.80
2022-07-31T10:59:57.884Z,1.67
2022-07-31T11:02:30.096Z,1.93
2022-07-31T11:05:08.509Z,1.60
2022-07-31T11:07:37.102Z,1.93
2022-07-31T11:10:16.439Z,1.40
2022-07-31T11:12:45.007Z,1.80
2022-07-31T11:15:22.104Z,1.80
2022-07-31T11:18:21.193Z,1.80
2022-07-31T11:20:41.114Z,1.87
2022-07-31T11:23:10.497Z,1.83
2022-07-31T11:25:40.026Z,1.80
2022-07-31T11:28:12.659Z,1.80
2022-07-31T11:30:53.719Z,2.00
2022-07-31T11:33:41.910Z,1.63
2022-07-31T11:36:12.135Z,1.70
2022-07-31T11:38:41.748Z,1.90
2022-07-31T11:41:10.874Z,1.73
2022-07-31T11:43:45.448Z,2.13
2022-07-31T11:46:16.562Z,1.80
2022-07-31T11:48:45.799Z,1.67
2022-07-31T11:51:19.607Z,1.83
2022-07-31T11:53:48.429Z,1.80
2022-07-31T11:56:26.369Z,1.70
2022-07-31T11:58:55.688Z,1.60
2022-07-31T12:01:29.230Z,1.80
2022-07-31T12:04:08.696Z,2.00
2022-07-31T12:06:37.988Z,1.80
2022-07-31T12:09:06.518Z,1.93
2022-07-31T12:11:35.031Z,2.20
2022-07-31T12:14:03.526Z,2.13
2022-07-31T12:16:42.421Z,2.10
2022-07-31T12:19:10.893Z,2.50
2022-07-31T12:21:40.773Z,2.10
2022-07-31T12:24:13.143Z,2.00
2022-07-31T12:26:44.962Z,3.40
2022-07-31T12:29:14.048Z,2.90
2022-07-31T12:31:47.549Z,2.40
2022-07-31T12:34:16.078Z,2.27
2022-07-31T12:36:44.668Z,2.20
2022-07-31T12:39:13.702Z,2.67
2022-07-31T12:41:45.258Z,7.27
2022-07-31T12:44:14.583Z,3.00
2022-07-31T12:46:43.710Z,2.23
2022-07-31T12:49:13.773Z,2.10
2022-07-31T12:51:45.012Z,2.03
2022-07-31T12:54:15.961Z,2.10
2022-07-31T12:56:44.967Z,2.23
2022-07-31T12:59:13.713Z,2.20
2022-07-31T13:01:42.317Z,2.20
2022-07-31T13:04:18.690Z,2.80
2022-07-31T13:06:51.657Z,2.40
2022-07-31T13:09:20.498Z,2.63
2022-07-31T13:11:52.122Z,2.40
2022-07-31T13:14:24.867Z,2.57
2022-07-31T13:16:55.055Z,3.00
2022-07-31T13:19:23.570Z,3.50
2022-07-31T13:21:56.618Z,2.80
2022-07-31T13:24:25.552Z,3.00
2022-07-31T13:26:54.080Z,3.37
2022-07-31T13:29:22.522Z,3.60
2022-07-31T13:31:50.990Z,4.00
2022-07-31T13:34:19.421Z,3.43
2022-07-31T13:36:47.864Z,3.27
2022-07-31T13:39:17.752Z,3.50
2022-07-31T13:41:46.251Z,3.57
2022-07-31T13:44:15.105Z,3.27
2022-07-31T13:46:43.619Z,3.30
2022-07-31T13:49:12.708Z,3.60
2022-07-31T13:51:41.295Z,3.13
2022-07-31T13:54:09.955Z,3.07
2022-07-31T13:56:43.473Z,3.37
2022-07-31T13:59:16.626Z,3.40
2022-07-31T14:02:04.460Z,3.60
2022-07-31T14:04:38.275Z,4.10
2022-07-31T14:07:07.956Z,4.33
2022-07-31T14:09:37.759Z,4.10
2022-07-31T14:12:08.488Z,4.13
2022-07-31T14:14:38.175Z,3.30
2022-07-31T14:17:06.677Z,3.63
2022-07-31T14:19:41.957Z,3.87
2022-07-31T14:22:13.315Z,3.30
2022-07-31T14:24:45.645Z,3.77
2022-07-31T14:27:21.940Z,4.13
2022-07-31T14:29:50.486Z,4.17
2022-07-31T14:32:19.475Z,3.67
2022-07-31T14:34:48.055Z,3.80
2022-07-31T14:37:16.621Z,4.30
2022-07-31T14:39:45.185Z,4.20
2022-07-31T14:42:13.915Z,4.30
2022-07-31T14:44:43.931Z,3.60
2022-07-31T14:47:12.944Z,3.20
2022-07-31T14:50:08.543Z,4.10
2022-07-31T14:52:30.883Z,3.70
2022-07-31T14:55:00.523Z,3.80
2022-07-31T14:57:29.908Z,3.73
2022-07-31T14:59:59.860Z,4.00
2022-07-31T15:02:28.682Z,3.67
2022-07-31T15:04:57.235Z,3.87
2022-07-31T15:07:35.308Z,3.33
2022-07-31T15:10:06.300Z,3.60
2022-07-31T15:12:34.986Z,3.27
2022-07-31T15:15:05.003Z,3.40
2022-07-31T15:17:33.468Z,3.47
2022-07-31T15:20:20.869Z,3.97
2022-07-31T15:23:20.029Z,3.20
2022-07-31T15:25:49.613Z,4.00
2022-07-31T15:28:18.177Z,4.67
2022-07-31T15:30:48.160Z,3.77
2022-07-31T15:33:16.810Z,4.23
2022-07-31T15:35:45.422Z,3.83
2022-07-31T15:38:13.878Z,3.47
2022-07-31T15:40:42.432Z,3.90
2022-07-31T15:43:10.844Z,2.87
2022-07-31T15:45:39.502Z,3.87
2022-07-31T15:48:10.145Z,3.10
2022-07-31T15:50:38.971Z,3.40
2022-07-31T15:53:07.450Z,3.33
2022-07-31T15:55:35.956Z,3.33
2022-07-31T15:58:04.404Z,2.77
2022-07-31T16:00:32.836Z,2.90
2022-07-31T16:03:01.930Z,2.50
2022-07-31T16:05:38.621Z,2.97
2022-07-31T16:08:31.293Z,2.60
2022-07-31T16:10:56.761Z,2.33
2022-07-31T16:13:25.723Z,2.30
2022-07-31T16:15:54.521Z,2.20
2022-07-31T16:18:24.222Z,2.20
2022-07-31T16:20:54.132Z,2.20
2022-07-31T16:23:25.628Z,2.20
2022-07-31T16:25:54.106Z,2.40
2022-07-31T16:28:22.748Z,2.40
2022-07-31T16:30:52.115Z,2.30
2022-07-31T16:33:20.714Z,1.97
2022-07-31T16:35:49.211Z,2.00
2022-07-31T16:38:19.139Z,2.27
2022-07-31T16:40:51.824Z,1.90
2022-07-31T16:43:49.303Z,2.27
2022-07-31T16:46:10.519Z,2.07
2022-07-31T16:48:39.011Z,1.83
2022-07-31T16:51:07.631Z,2.00
2022-07-31T16:54:13.416Z,2.00
2022-07-31T16:56:25.948Z,2.57
2022-07-31T16:58:56.005Z,1.97
2022-07-31T17:01:57.546Z,2.37
2022-07-31T17:04:13.876Z,2.53
2022-07-31T17:06:42.406Z,2.27
2022-07-31T17:09:16.073Z,2.30
2022-07-31T17:11:46.585Z,2.40
2022-07-31T17:14:15.043Z,1.90
2022-07-31T17:16:47.084Z,2.70
2022-07-31T17:19:16.854Z,2.53
2022-07-31T17:22:05.468Z,2.30
2022-07-31T17:24:37.889Z,2.60
2022-07-31T17:27:07.668Z,2.87
2022-07-31T17:29:36.630Z,2.80
2022-07-31T17:32:05.657Z,2.97
2022-07-31T17:34:35.420Z,2.77
2022-07-31T17:37:04.422Z,3.17
2022-07-31T17:39:33.188Z,2.83
2022-07-31T17:42:03.186Z,3.03
2022-07-31T17:44:31.922Z,3.03
2022-07-31T17:47:00.477Z,3.10
2022-07-31T17:49:32.407Z,3.00
2022-07-31T17:52:00.942Z,3.80
2022-07-31T17:54:30.403Z,3.77
2022-07-31T17:56:59.194Z,3.73
2022-07-31T17:59:29.168Z,4.00
2022-07-31T18:02:00.214Z,4.17
2022-07-31T18:04:29.289Z,4.80
2022-07-31T18:06:57.921Z,4.87
2022-07-31T18:09:26.688Z,4.70
2022-07-31T18:11:55.554Z,5.00
2022-07-31T18:14:24.830Z,5.07
2022-07-31T18:16:55.019Z,5.43
2022-07-31T18:19:23.866Z,5.37
2022-07-31T18:21:52.570Z,5.70
2022-07-31T18:24:21.333Z,6.27
2022-07-31T18:26:50.365Z,5.47
2022-07-31T18:29:19.257Z,6.10
2022-07-31T18:31:47.977Z,5.10
2022-07-31T18:34:18.223Z,4.37
2022-07-31T18:36:48.650Z,4.47
2022-07-31T18:39:19.024Z,4.40
2022-07-31T18:41:49.065Z,4.00
2022-07-31T18:44:22.036Z,4.70
2022-07-31T18:46:50.633Z,4.77
2022-07-31T18:51:02.115Z,4.50
2022-07-31T18:52:09.903Z,4.50
2022-07-31T18:54:38.514Z,4.83
2022-07-31T18:57:07.843Z,5.63
2022-07-31T18:59:38.754Z,5.87
2022-07-31T19:02:11.488Z,5.13
2022-07-31T19:04:41.996Z,5.60
2022-07-31T19:07:10.563Z,5.13
2022-07-31T19:09:39.202Z,5.87
2022-07-31T19:12:08.937Z,5.60
2022-07-31T19:14:37.740Z,5.70
2022-07-31T19:17:06.990Z,5.90
2022-07-31T19:19:41.564Z,6.70
2022-07-31T19:22:24.551Z,6.80
2022-07-31T19:24:53.286Z,7.40
2022-07-31T19:27:21.726Z,6.50
2022-07-31T19:30:10.588Z,6.57
2022-07-31T19:32:40.801Z,6.67
2022-07-31T19:35:09.576Z,6.67
2022-07-31T19:37:39.468Z,6.70
2022-07-31T19:40:08.889Z,6.90
2022-07-31T19:42:37.339Z,6.00
2022-07-31T19:45:06.147Z,6.07
2022-07-31T19:47:36.497Z,6.20
2022-07-31T19:50:05.485Z,7.30
2022-07-31T19:52:33.879Z,6.43
2022-07-31T19:55:03.816Z,6.80
2022-07-31T19:57:32.393Z,7.50
2022-07-31T20:00:00.819Z,7.10
2022-07-31T20:02:29.305Z,7.23
2022-07-31T20:04:57.742Z,7.80
2022-07-31T20:07:32.662Z,7.50
2022-07-31T20:10:02.074Z,7.47
2022-07-31T20:12:31.858Z,7.17
2022-07-31T20:15:00.623Z,6.70
2022-07-31T20:17:29.297Z,7.30
2022-07-31T20:20:02.805Z,7.97
2022-07-31T20:22:42.895Z,8.03
2022-07-31T20:25:19.482Z,8.27
2022-07-31T20:27:50.450Z,7.18
2022-07-31T20:30:22.008Z,7.83
2022-07-31T20:32:50.741Z,7.43
2022-07-31T20:35:32.816Z,7.70
2022-07-31T20:38:13.964Z,7.23
2022-07-31T20:40:52.764Z,7.47
2022-07-31T20:43:24.358Z,7.50
2022-07-31T20:45:52.920Z,7.60
2022-07-31T20:48:24.397Z,7.30
2022-07-31T20:50:53.662Z,6.63
2022-07-31T20:53:23.129Z,7.50
2022-07-31T20:55:51.757Z,7.50
2022-07-31T20:58:20.847Z,7.50
2022-07-31T21:00:51.739Z,7.37
2022-07-31T21:03:20.739Z,7.10
2022-07-31T21:05:49.654Z,7.30
2022-07-31T21:08:18.298Z,7.00
2022-07-31T21:10:46.811Z,6.57
2022-07-31T21:13:15.343Z,7.00
2022-07-31T21:15:45.254Z,7.10
2022-07-31T21:18:15.879Z,6.70
2022-07-31T21:20:51.128Z,7.00
2022-07-31T21:23:22.045Z,7.20
2022-07-31T21:25:50.831Z,6.60
2022-07-31T21:28:19.866Z,7.17
2022-07-31T21:30:48.822Z,7.67
2022-07-31T21:33:19.333Z,7.43
2022-07-31T21:35:48.179Z,7.40
2022-07-31T21:38:16.795Z,8.00
2022-07-31T21:40:45.767Z,7.13
2022-07-31T21:43:16.918Z,6.97
2022-07-31T21:45:55.542Z,7.23
2022-07-31T21:48:28.232Z,6.90
2022-07-31T21:50:56.833Z,7.63
2022-07-31T21:53:25.694Z,7.03
2022-07-31T21:55:54.289Z,6.60
2022-07-31T21:58:22.780Z,6.60
2022-07-31T22:00:51.340Z,6.47
2022-07-31T22:03:19.904Z,7.50
2022-07-31T22:06:07.302Z,6.50
2022-07-31T22:08:35.861Z,6.90
2022-07-31T22:11:04.419Z,6.43
2022-07-31T22:13:32.919Z,6.60
2022-07-31T22:16:02.155Z,6.27
2022-07-31T22:18:31.222Z,7.47
2022-07-31T22:21:01.666Z,6.87
2022-07-31T22:23:30.838Z,7.10
2022-07-31T22:25:59.607Z,7.30
2022-07-31T22:28:28.406Z,6.60
2022-07-31T22:30:57.207Z,6.73
2022-07-31T22:33:25.887Z,6.30
2022-07-31T22:36:00.002Z,6.67
2022-07-31T22:38:31.820Z,5.70
2022-07-31T22:41:00.604Z,6.10
2022-07-31T22:44:10.424Z,5.40
2022-07-31T22:46:18.033Z,5.80
2022-07-31T22:48:47.037Z,5.73
2022-07-31T22:51:15.888Z,5.10
2022-07-31T22:53:48.820Z,5.43
2022-07-31T22:56:17.924Z,5.27
2022-07-31T22:58:46.529Z,5.60
2022-07-31T23:01:15.100Z,5.10
2022-07-31T23:03:43.551Z,5.60
2022-07-31T23:06:30.824Z,5.27
2022-07-31T23:09:02.613Z,4.60
2022-07-31T23:11:31.184Z,5.00
2022-07-31T23:13:59.796Z,5.17
2022-07-31T23:16:28.277Z,4.77
2022-07-31T23:18:56.803Z,4.23
2022-07-31T23:21:25.886Z,4.57
2022-07-31T23:23:54.696Z,4.70
2022-07-31T23:26:25.396Z,4.50
2022-07-31T23:28:54.279Z,5.10
2022-07-31T23:31:23.371Z,4.60
2022-07-31T23:33:52.883Z,4.30
2022-07-31T23:36:21.571Z,4.80
2022-07-31T23:38:50.503Z,4.77
2022-07-31T23:41:39.974Z,4.40
2022-07-31T23:44:10.643Z,4.67
2022-07-31T23:46:40.331Z,4.47
2022-07-31T23:49:09.259Z,5.00
2022-07-31T23:51:37.768Z,4.30
2022-07-31T23:54:06.374Z,4.30
2022-07-31T23:56:35.020Z,4.10
2022-07-31T23:59:03.568Z,4.93
